sensor_id;sensor_type;location;lat;lon;timestamp;P1;durP1;ratioP1;P2;durP2;ratioP2
13731;SDS011;6937;56.096;12.664;2022-11-15T00:00:47;33.92;;;22.77;;
13731;SDS011;6937;56.096;12.664;2022-11-15T00:03:14;35.70;;;24.45;;
13731;SDS011;6937;56.096;12.664;2022-11-15T00:05:40;40.00;;;24.85;;
13731;SDS011;6937;56.096;12.664;2022-11-15T00:08:05;36.75;;;25.45;;
13731;SDS011;6937;56.096;12.664;2022-11-15T00:10:31;37.38;;;24.63;;
13731;SDS011;6937;56.096;12.664;2022-11-15T00:12:56;36.60;;;25.83;;
13731;SDS011;6937;56.096;12.664;2022-11-15T00:15:22;34.53;;;26.42;;
13731;SDS011;6937;56.096;12.664;2022-11-15T00:17:50;36.72;;;27.73;;
13731;SDS011;6937;56.096;12.664;2022-11-15T00:20:16;36.95;;;25.85;;
13731;SDS011;6937;56.096;12.664;2022-11-15T00:22:42;40.05;;;25.50;;
13731;SDS011;6937;56.096;12.664;2022-11-15T00:25:08;37.25;;;25.15;;
13731;SDS011;6937;56.096;12.664;2022-11-15T00:27:33;37.45;;;24.45;;
13731;SDS011;6937;56.096;12.664;2022-11-15T00:29:59;38.17;;;27.63;;
13731;SDS011;6937;56.096;12.664;2022-11-15T00:32:25;35.63;;;24.25;;
13731;SDS011;6937;56.096;12.664;2022-11-15T00:34:50;44.50;;;26.40;;
13731;SDS011;6937;56.096;12.664;2022-11-15T00:37:16;36.10;;;27.80;;
13731;SDS011;6937;56.096;12.664;2022-11-15T00:39:41;41.72;;;31.40;;
13731;SDS011;6937;56.096;12.664;2022-11-15T00:42:06;40.17;;;31.25;;
13731;SDS011;6937;56.096;12.664;2022-11-15T00:44:31;39.65;;;25.70;;
13731;SDS011;6937;56.096;12.664;2022-11-15T00:46:57;39.58;;;25.25;;
13731;SDS011;6937;56.096;12.664;2022-11-15T00:49:22;38.58;;;27.85;;
13731;SDS011;6937;56.096;12.664;2022-11-15T00:51:47;40.40;;;30.33;;
13731;SDS011;6937;56.096;12.664;2022-11-15T00:54:13;43.35;;;26.67;;
13731;SDS011;6937;56.096;12.664;2022-11-15T00:56:38;42.35;;;30.17;;
13731;SDS011;6937;56.096;12.664;2022-11-15T00:59:03;41.20;;;26.92;;
13731;SDS011;6937;56.096;12.664;2022-11-15T01:01:29;38.25;;;26.30;;
13731;SDS011;6937;56.096;12.664;2022-11-15T01:03:54;36.10;;;24.15;;
13731;SDS011;6937;56.096;12.664;2022-11-15T01:06:20;39.83;;;24.70;;
13731;SDS011;6937;56.096;12.664;2022-11-15T01:08:45;38.10;;;24.48;;
13731;SDS011;6937;56.096;12.664;2022-11-15T01:11:11;42.08;;;27.15;;
13731;SDS011;6937;56.096;12.664;2022-11-15T01:13:37;43.67;;;29.27;;
13731;SDS011;6937;56.096;12.664;2022-11-15T01:16:11;44.88;;;29.10;;
13731;SDS011;6937;56.096;12.664;2022-11-15T01:18:38;36.65;;;27.98;;
13731;SDS011;6937;56.096;12.664;2022-11-15T01:21:04;36.85;;;26.63;;
13731;SDS011;6937;56.096;12.664;2022-11-15T01:23:31;39.47;;;26.63;;
13731;SDS011;6937;56.096;12.664;2022-11-15T01:26:00;41.53;;;24.88;;
13731;SDS011;6937;56.096;12.664;2022-11-15T01:28:34;38.83;;;28.73;;
13731;SDS011;6937;56.096;12.664;2022-11-15T01:31:01;40.88;;;28.38;;
13731;SDS011;6937;56.096;12.664;2022-11-15T01:33:28;41.35;;;26.15;;
13731;SDS011;6937;56.096;12.664;2022-11-15T01:35:54;36.72;;;28.10;;
13731;SDS011;6937;56.096;12.664;2022-11-15T01:38:21;36.90;;;27.20;;
13731;SDS011;6937;56.096;12.664;2022-11-15T01:40:47;36.10;;;27.13;;
13731;SDS011;6937;56.096;12.664;2022-11-15T01:46:44;37.38;;;24.50;;
13731;SDS011;6937;56.096;12.664;2022-11-15T01:48:46;36.80;;;23.08;;
13731;SDS011;6937;56.096;12.664;2022-11-15T01:51:13;33.40;;;25.33;;
13731;SDS011;6937;56.096;12.664;2022-11-15T01:53:43;39.35;;;27.50;;
13731;SDS011;6937;56.096;12.664;2022-11-15T01:56:13;36.70;;;28.27;;
13731;SDS011;6937;56.096;12.664;2022-11-15T01:58:47;40.80;;;28.20;;
13731;SDS011;6937;56.096;12.664;2022-11-15T02:01:14;39.10;;;26.45;;
13731;SDS011;6937;56.096;12.664;2022-11-15T02:03:41;39.60;;;24.95;;
13731;SDS011;6937;56.096;12.664;2022-11-15T02:06:13;40.85;;;27.08;;
13731;SDS011;6937;56.096;12.664;2022-11-15T02:08:39;38.88;;;25.60;;
13731;SDS011;6937;56.096;12.664;2022-11-15T02:11:08;37.28;;;27.10;;
13731;SDS011;6937;56.096;12.664;2022-11-15T02:13:34;37.17;;;26.73;;
13731;SDS011;6937;56.096;12.664;2022-11-15T02:18:41;37.35;;;23.27;;
13731;SDS011;6937;56.096;12.664;2022-11-15T02:21:18;39.53;;;23.60;;
13731;SDS011;6937;56.096;12.664;2022-11-15T02:32:10;35.58;;;21.77;;
13731;SDS011;6937;56.096;12.664;2022-11-15T02:37:15;35.95;;;24.52;;
13731;SDS011;6937;56.096;12.664;2022-11-15T02:39:51;33.22;;;23.08;;
13731;SDS011;6937;56.096;12.664;2022-11-15T02:42:24;30.13;;;24.23;;
13731;SDS011;6937;56.096;12.664;2022-11-15T02:45:11;30.08;;;24.13;;
13731;SDS011;6937;56.096;12.664;2022-11-15T02:47:43;33.22;;;22.90;;
13731;SDS011;6937;56.096;12.664;2022-11-15T02:50:12;34.30;;;21.48;;
13731;SDS011;6937;56.096;12.664;2022-11-15T02:52:40;33.75;;;23.20;;
13731;SDS011;6937;56.096;12.664;2022-11-15T03:01:12;36.65;;;23.55;;
13731;SDS011;6937;56.096;12.664;2022-11-15T03:06:37;34.95;;;24.63;;
13731;SDS011;6937;56.096;12.664;2022-11-15T03:12:18;36.20;;;23.05;;
13731;SDS011;6937;56.096;12.664;2022-11-15T03:15:41;36.58;;;22.42;;
13731;SDS011;6937;56.096;12.664;2022-11-15T03:18:00;37.60;;;23.52;;
13731;SDS011;6937;56.096;12.664;2022-11-15T03:20:28;34.83;;;23.40;;
13731;SDS011;6937;56.096;12.664;2022-11-15T03:22:55;33.90;;;21.90;;
13731;SDS011;6937;56.096;12.664;2022-11-15T03:25:25;35.83;;;27.42;;
13731;SDS011;6937;56.096;12.664;2022-11-15T03:27:53;35.97;;;27.45;;
13731;SDS011;6937;56.096;12.664;2022-11-15T03:30:22;36.85;;;27.55;;
13731;SDS011;6937;56.096;12.664;2022-11-15T03:32:57;35.05;;;25.33;;
13731;SDS011;6937;56.096;12.664;2022-11-15T03:35:26;39.88;;;24.48;;
13731;SDS011;6937;56.096;12.664;2022-11-15T03:38:06;35.47;;;27.70;;
13731;SDS011;6937;56.096;12.664;2022-11-15T03:40:37;33.35;;;26.48;;
13731;SDS011;6937;56.096;12.664;2022-11-15T03:43:09;38.53;;;27.75;;
13731;SDS011;6937;56.096;12.664;2022-11-15T03:45:45;43.88;;;25.80;;
13731;SDS011;6937;56.096;12.664;2022-11-15T03:48:26;38.38;;;23.50;;
13731;SDS011;6937;56.096;12.664;2022-11-15T03:50:58;36.38;;;28.02;;
13731;SDS011;6937;56.096;12.664;2022-11-15T03:53:23;37.58;;;28.92;;
13731;SDS011;6937;56.096;12.664;2022-11-15T03:55:49;37.72;;;30.02;;
13731;SDS011;6937;56.096;12.664;2022-11-15T03:58:14;38.20;;;26.73;;
13731;SDS011;6937;56.096;12.664;2022-11-15T04:00:39;44.95;;;26.15;;
13731;SDS011;6937;56.096;12.664;2022-11-15T04:03:05;37.72;;;26.30;;
13731;SDS011;6937;56.096;12.664;2022-11-15T04:05:30;36.60;;;28.50;;
13731;SDS011;6937;56.096;12.664;2022-11-15T04:07:55;38.88;;;28.80;;
13731;SDS011;6937;56.096;12.664;2022-11-15T04:10:21;35.53;;;26.75;;
13731;SDS011;6937;56.096;12.664;2022-11-15T04:12:46;43.08;;;27.92;;
13731;SDS011;6937;56.096;12.664;2022-11-15T04:15:22;39.17;;;26.67;;
13731;SDS011;6937;56.096;12.664;2022-11-15T04:17:55;42.33;;;27.95;;
13731;SDS011;6937;56.096;12.664;2022-11-15T04:20:23;36.60;;;28.45;;
13731;SDS011;6937;56.096;12.664;2022-11-15T04:23:21;37.35;;;24.75;;
13731;SDS011;6937;56.096;12.664;2022-11-15T04:26:14;39.35;;;27.88;;
13731;SDS011;6937;56.096;12.664;2022-11-15T04:28:42;39.97;;;25.60;;
13731;SDS011;6937;56.096;12.664;2022-11-15T04:31:26;37.38;;;29.05;;
13731;SDS011;6937;56.096;12.664;2022-11-15T04:33:52;35.13;;;27.27;;
13731;SDS011;6937;56.096;12.664;2022-11-15T04:36:18;33.92;;;23.42;;
13731;SDS011;6937;56.096;12.664;2022-11-15T04:39:03;37.67;;;25.55;;
13731;SDS011;6937;56.096;12.664;2022-11-15T04:41:28;36.10;;;23.98;;
13731;SDS011;6937;56.096;12.664;2022-11-15T04:43:54;38.05;;;24.30;;
13731;SDS011;6937;56.096;12.664;2022-11-15T04:46:19;36.25;;;27.52;;
13731;SDS011;6937;56.096;12.664;2022-11-15T04:48:45;33.85;;;27.08;;
13731;SDS011;6937;56.096;12.664;2022-11-15T04:51:11;30.63;;;26.13;;
13731;SDS011;6937;56.096;12.664;2022-11-15T04:53:36;33.78;;;26.33;;
13731;SDS011;6937;56.096;12.664;2022-11-15T04:56:01;33.90;;;27.50;;
13731;SDS011;6937;56.096;12.664;2022-11-15T04:58:27;34.95;;;26.33;;
13731;SDS011;6937;56.096;12.664;2022-11-15T05:00:52;38.25;;;25.92;;
13731;SDS011;6937;56.096;12.664;2022-11-15T05:03:17;32.83;;;22.70;;
13731;SDS011;6937;56.096;12.664;2022-11-15T05:06:01;34.03;;;24.23;;
13731;SDS011;6937;56.096;12.664;2022-11-15T05:08:27;31.73;;;25.92;;
13731;SDS011;6937;56.096;12.664;2022-11-15T05:10:52;33.45;;;26.05;;
13731;SDS011;6937;56.096;12.664;2022-11-15T05:13:18;33.25;;;25.98;;
13731;SDS011;6937;56.096;12.664;2022-11-15T05:15:43;38.13;;;27.42;;
13731;SDS011;6937;56.096;12.664;2022-11-15T05:18:08;33.10;;;25.52;;
13731;SDS011;6937;56.096;12.664;2022-11-15T05:20:34;35.92;;;24.42;;
13731;SDS011;6937;56.096;12.664;2022-11-15T05:23:00;31.95;;;22.40;;
13731;SDS011;6937;56.096;12.664;2022-11-15T05:25:25;31.55;;;24.83;;
13731;SDS011;6937;56.096;12.664;2022-11-15T05:27:51;30.33;;;25.25;;
13731;SDS011;6937;56.096;12.664;2022-11-15T05:30:16;35.95;;;23.88;;
13731;SDS011;6937;56.096;12.664;2022-11-15T05:32:42;35.17;;;24.58;;
13731;SDS011;6937;56.096;12.664;2022-11-15T05:35:08;33.70;;;24.38;;
13731;SDS011;6937;56.096;12.664;2022-11-15T05:37:40;31.77;;;23.33;;
13731;SDS011;6937;56.096;12.664;2022-11-15T05:40:06;31.65;;;22.85;;
13731;SDS011;6937;56.096;12.664;2022-11-15T05:42:31;34.25;;;22.67;;
13731;SDS011;6937;56.096;12.664;2022-11-15T05:44:57;30.30;;;23.98;;
13731;SDS011;6937;56.096;12.664;2022-11-15T05:47:24;33.88;;;25.40;;
13731;SDS011;6937;56.096;12.664;2022-11-15T05:49:53;30.80;;;23.58;;
13731;SDS011;6937;56.096;12.664;2022-11-15T05:52:20;30.35;;;24.15;;
13731;SDS011;6937;56.096;12.664;2022-11-15T05:54:50;32.17;;;21.63;;
13731;SDS011;6937;56.096;12.664;2022-11-15T05:57:16;30.42;;;22.00;;
13731;SDS011;6937;56.096;12.664;2022-11-15T05:59:42;32.95;;;23.05;;
13731;SDS011;6937;56.096;12.664;2022-11-15T06:02:08;27.90;;;22.73;;
13731;SDS011;6937;56.096;12.664;2022-11-15T06:04:34;31.60;;;24.88;;
13731;SDS011;6937;56.096;12.664;2022-11-15T06:07:00;31.70;;;25.00;;
13731;SDS011;6937;56.096;12.664;2022-11-15T06:09:25;30.60;;;24.92;;
13731;SDS011;6937;56.096;12.664;2022-11-15T06:11:51;30.02;;;24.52;;
13731;SDS011;6937;56.096;12.664;2022-11-15T06:14:16;33.17;;;25.08;;
13731;SDS011;6937;56.096;12.664;2022-11-15T06:16:41;32.78;;;24.38;;
13731;SDS011;6937;56.096;12.664;2022-11-15T06:19:07;36.47;;;24.77;;
13731;SDS011;6937;56.096;12.664;2022-11-15T06:21:32;37.38;;;24.52;;
13731;SDS011;6937;56.096;12.664;2022-11-15T06:23:58;37.13;;;27.38;;
13731;SDS011;6937;56.096;12.664;2022-11-15T06:26:23;35.08;;;24.75;;
13731;SDS011;6937;56.096;12.664;2022-11-15T06:28:48;37.05;;;24.58;;
13731;SDS011;6937;56.096;12.664;2022-11-15T06:31:14;37.78;;;25.20;;
13731;SDS011;6937;56.096;12.664;2022-11-15T06:33:39;36.65;;;25.10;;
13731;SDS011;6937;56.096;12.664;2022-11-15T06:36:06;33.30;;;26.85;;
13731;SDS011;6937;56.096;12.664;2022-11-15T06:38:33;33.65;;;26.00;;
13731;SDS011;6937;56.096;12.664;2022-11-15T06:41:03;35.53;;;23.42;;
13731;SDS011;6937;56.096;12.664;2022-11-15T06:43:29;33.80;;;23.33;;
13731;SDS011;6937;56.096;12.664;2022-11-15T06:45:55;32.67;;;23.48;;
13731;SDS011;6937;56.096;12.664;2022-11-15T06:48:20;34.00;;;26.92;;
13731;SDS011;6937;56.096;12.664;2022-11-15T06:50:55;32.47;;;25.17;;
13731;SDS011;6937;56.096;12.664;2022-11-15T06:53:23;33.60;;;25.95;;
13731;SDS011;6937;56.096;12.664;2022-11-15T06:55:49;34.30;;;23.58;;
13731;SDS011;6937;56.096;12.664;2022-11-15T06:58:14;35.65;;;25.13;;
13731;SDS011;6937;56.096;12.664;2022-11-15T07:00:40;36.00;;;25.10;;
13731;SDS011;6937;56.096;12.664;2022-11-15T07:03:05;31.98;;;23.38;;
13731;SDS011;6937;56.096;12.664;2022-11-15T07:05:31;31.55;;;23.00;;
13731;SDS011;6937;56.096;12.664;2022-11-15T07:07:57;32.13;;;23.38;;
13731;SDS011;6937;56.096;12.664;2022-11-15T07:10:23;33.03;;;23.20;;
13731;SDS011;6937;56.096;12.664;2022-11-15T07:12:50;35.35;;;24.33;;
13731;SDS011;6937;56.096;12.664;2022-11-15T07:15:17;31.00;;;22.63;;
13731;SDS011;6937;56.096;12.664;2022-11-15T07:17:43;31.30;;;20.00;;
13731;SDS011;6937;56.096;12.664;2022-11-15T07:20:08;32.15;;;25.25;;
13731;SDS011;6937;56.096;12.664;2022-11-15T07:22:34;30.50;;;24.85;;
13731;SDS011;6937;56.096;12.664;2022-11-15T07:25:00;29.55;;;21.77;;
13731;SDS011;6937;56.096;12.664;2022-11-15T07:27:25;33.17;;;21.75;;
13731;SDS011;6937;56.096;12.664;2022-11-15T07:29:50;28.92;;;22.63;;
13731;SDS011;6937;56.096;12.664;2022-11-15T07:32:16;29.75;;;22.65;;
13731;SDS011;6937;56.096;12.664;2022-11-15T07:34:41;34.03;;;22.30;;
13731;SDS011;6937;56.096;12.664;2022-11-15T07:37:07;32.33;;;22.15;;
13731;SDS011;6937;56.096;12.664;2022-11-15T07:39:32;32.72;;;22.55;;
13731;SDS011;6937;56.096;12.664;2022-11-15T07:41:58;33.25;;;23.83;;
13731;SDS011;6937;56.096;12.664;2022-11-15T07:44:42;30.08;;;24.77;;
13731;SDS011;6937;56.096;12.664;2022-11-15T07:47:08;30.77;;;25.67;;
13731;SDS011;6937;56.096;12.664;2022-11-15T07:49:33;31.30;;;24.65;;
13731;SDS011;6937;56.096;12.664;2022-11-15T07:51:58;31.00;;;23.48;;
13731;SDS011;6937;56.096;12.664;2022-11-15T07:54:24;29.88;;;22.13;;
13731;SDS011;6937;56.096;12.664;2022-11-15T07:56:49;30.25;;;22.05;;
13731;SDS011;6937;56.096;12.664;2022-11-15T07:59:14;29.73;;;21.15;;
13731;SDS011;6937;56.096;12.664;2022-11-15T08:01:40;31.50;;;22.45;;
13731;SDS011;6937;56.096;12.664;2022-11-15T08:04:05;28.20;;;24.40;;
13731;SDS011;6937;56.096;12.664;2022-11-15T08:06:30;30.70;;;25.42;;
13731;SDS011;6937;56.096;12.664;2022-11-15T08:08:56;30.25;;;23.25;;
13731;SDS011;6937;56.096;12.664;2022-11-15T08:11:21;30.00;;;20.98;;
13731;SDS011;6937;56.096;12.664;2022-11-15T08:13:46;31.92;;;20.90;;
13731;SDS011;6937;56.096;12.664;2022-11-15T08:16:12;28.20;;;22.48;;
13731;SDS011;6937;56.096;12.664;2022-11-15T08:18:37;28.90;;;21.98;;
13731;SDS011;6937;56.096;12.664;2022-11-15T08:21:03;28.40;;;23.85;;
13731;SDS011;6937;56.096;12.664;2022-11-15T08:23:29;30.13;;;21.75;;
13731;SDS011;6937;56.096;12.664;2022-11-15T08:26:01;33.42;;;22.48;;
13731;SDS011;6937;56.096;12.664;2022-11-15T08:28:27;30.50;;;22.13;;
13731;SDS011;6937;56.096;12.664;2022-11-15T08:30:53;29.10;;;24.13;;
13731;SDS011;6937;56.096;12.664;2022-11-15T08:33:18;28.77;;;23.33;;
13731;SDS011;6937;56.096;12.664;2022-11-15T08:35:43;29.80;;;21.02;;
13731;SDS011;6937;56.096;12.664;2022-11-15T08:38:09;28.38;;;20.75;;
13731;SDS011;6937;56.096;12.664;2022-11-15T08:40:34;25.70;;;21.60;;
13731;SDS011;6937;56.096;12.664;2022-11-15T08:43:00;28.88;;;24.67;;
13731;SDS011;6937;56.096;12.664;2022-11-15T08:45:27;30.38;;;22.65;;
13731;SDS011;6937;56.096;12.664;2022-11-15T08:47:54;29.55;;;21.70;;
13731;SDS011;6937;56.096;12.664;2022-11-15T08:50:19;28.33;;;21.58;;
13731;SDS011;6937;56.096;12.664;2022-11-15T08:52:45;25.90;;;22.17;;
13731;SDS011;6937;56.096;12.664;2022-11-15T08:55:10;34.20;;;23.00;;
13731;SDS011;6937;56.096;12.664;2022-11-15T08:57:35;31.58;;;21.83;;
13731;SDS011;6937;56.096;12.664;2022-11-15T09:00:01;27.70;;;23.50;;
13731;SDS011;6937;56.096;12.664;2022-11-15T09:02:28;28.60;;;23.98;;
13731;SDS011;6937;56.096;12.664;2022-11-15T09:04:53;30.45;;;22.45;;
13731;SDS011;6937;56.096;12.664;2022-11-15T09:07:18;32.72;;;21.40;;
13731;SDS011;6937;56.096;12.664;2022-11-15T09:09:44;26.55;;;23.55;;
13731;SDS011;6937;56.096;12.664;2022-11-15T09:12:09;27.48;;;23.80;;
13731;SDS011;6937;56.096;12.664;2022-11-15T09:14:34;27.38;;;23.17;;
13731;SDS011;6937;56.096;12.664;2022-11-15T09:17:00;26.33;;;22.80;;
13731;SDS011;6937;56.096;12.664;2022-11-15T09:19:26;28.75;;;20.80;;
13731;SDS011;6937;56.096;12.664;2022-11-15T09:21:51;26.88;;;20.75;;
13731;SDS011;6937;56.096;12.664;2022-11-15T09:24:17;26.02;;;20.70;;
13731;SDS011;6937;56.096;12.664;2022-11-15T09:26:42;27.20;;;19.90;;
13731;SDS011;6937;56.096;12.664;2022-11-15T09:29:08;28.50;;;20.73;;
13731;SDS011;6937;56.096;12.664;2022-11-15T09:31:33;26.50;;;20.73;;
13731;SDS011;6937;56.096;12.664;2022-11-15T09:33:59;25.35;;;21.50;;
13731;SDS011;6937;56.096;12.664;2022-11-15T09:36:25;25.65;;;21.63;;
13731;SDS011;6937;56.096;12.664;2022-11-15T09:38:51;24.13;;;21.13;;
13731;SDS011;6937;56.096;12.664;2022-11-15T09:41:25;25.65;;;21.45;;
13731;SDS011;6937;56.096;12.664;2022-11-15T09:47:14;24.45;;;21.50;;
13731;SDS011;6937;56.096;12.664;2022-11-15T09:50:00;25.05;;;21.83;;
13731;SDS011;6937;56.096;12.664;2022-11-15T09:52:33;27.05;;;21.92;;
13731;SDS011;6937;56.096;12.664;2022-11-15T09:55:01;27.80;;;22.38;;
13731;SDS011;6937;56.096;12.664;2022-11-15T10:05:34;25.08;;;21.60;;
13731;SDS011;6937;56.096;12.664;2022-11-15T10:10:46;24.60;;;21.67;;
13731;SDS011;6937;56.096;12.664;2022-11-15T10:13:16;25.92;;;21.75;;
13731;SDS011;6937;56.096;12.664;2022-11-15T10:16:04;26.17;;;21.80;;
13731;SDS011;6937;56.096;12.664;2022-11-15T10:19:01;28.27;;;23.65;;
13731;SDS011;6937;56.096;12.664;2022-11-15T10:21:56;28.40;;;23.75;;
13731;SDS011;6937;56.096;12.664;2022-11-15T10:24:43;25.40;;;22.60;;
13731;SDS011;6937;56.096;12.664;2022-11-15T10:27:11;27.52;;;23.30;;
13731;SDS011;6937;56.096;12.664;2022-11-15T10:29:45;28.52;;;23.38;;
13731;SDS011;6937;56.096;12.664;2022-11-15T10:32:12;26.13;;;22.98;;
13731;SDS011;6937;56.096;12.664;2022-11-15T10:34:40;29.92;;;25.02;;
13731;SDS011;6937;56.096;12.664;2022-11-15T10:37:05;29.45;;;24.10;;
13731;SDS011;6937;56.096;12.664;2022-11-15T10:39:31;29.30;;;24.67;;
13731;SDS011;6937;56.096;12.664;2022-11-15T10:41:58;28.30;;;23.55;;
13731;SDS011;6937;56.096;12.664;2022-11-15T10:44:43;27.42;;;23.83;;
13731;SDS011;6937;56.096;12.664;2022-11-15T10:47:26;27.77;;;24.10;;
13731;SDS011;6937;56.096;12.664;2022-11-15T10:49:56;27.23;;;23.77;;
13731;SDS011;6937;56.096;12.664;2022-11-15T10:52:23;27.55;;;24.05;;
13731;SDS011;6937;56.096;12.664;2022-11-15T10:55:00;25.05;;;21.80;;
13731;SDS011;6937;56.096;12.664;2022-11-15T10:57:47;25.30;;;22.15;;
13731;SDS011;6937;56.096;12.664;2022-11-15T11:05:39;25.60;;;22.13;;
13731;SDS011;6937;56.096;12.664;2022-11-15T11:10:53;25.35;;;21.90;;
13731;SDS011;6937;56.096;12.664;2022-11-15T11:16:33;29.33;;;24.85;;
13731;SDS011;6937;56.096;12.664;2022-11-15T11:21:53;28.92;;;24.42;;
13731;SDS011;6937;56.096;12.664;2022-11-15T11:24:47;31.40;;;25.75;;
13731;SDS011;6937;56.096;12.664;2022-11-15T11:27:42;31.55;;;25.98;;
13731;SDS011;6937;56.096;12.664;2022-11-15T11:35:25;32.95;;;27.05;;
13731;SDS011;6937;56.096;12.664;2022-11-15T11:38:04;33.92;;;28.50;;
13731;SDS011;6937;56.096;12.664;2022-11-15T11:51:48;34.60;;;27.40;;
13731;SDS011;6937;56.096;12.664;2022-11-15T11:54:20;32.42;;;26.90;;
13731;SDS011;6937;56.096;12.664;2022-11-15T11:56:47;32.97;;;26.42;;
13731;SDS011;6937;56.096;12.664;2022-11-15T12:02:09;34.15;;;26.70;;
13731;SDS011;6937;56.096;12.664;2022-11-15T12:04:40;31.50;;;26.42;;
13731;SDS011;6937;56.096;12.664;2022-11-15T12:09:43;30.33;;;25.45;;
13731;SDS011;6937;56.096;12.664;2022-11-15T12:14:58;30.63;;;25.20;;
13731;SDS011;6937;56.096;12.664;2022-11-15T12:17:34;29.83;;;24.77;;
13731;SDS011;6937;56.096;12.664;2022-11-15T12:20:13;33.03;;;25.83;;
13731;SDS011;6937;56.096;12.664;2022-11-15T12:22:42;30.83;;;25.00;;
13731;SDS011;6937;56.096;12.664;2022-11-15T12:25:19;30.48;;;25.02;;
13731;SDS011;6937;56.096;12.664;2022-11-15T12:30:16;26.67;;;23.40;;
13731;SDS011;6937;56.096;12.664;2022-11-15T12:32:54;28.08;;;22.50;;
13731;SDS011;6937;56.096;12.664;2022-11-15T12:35:38;27.88;;;23.15;;
13731;SDS011;6937;56.096;12.664;2022-11-15T12:38:10;28.83;;;23.67;;
13731;SDS011;6937;56.096;12.664;2022-11-15T12:40:38;26.38;;;22.20;;
13731;SDS011;6937;56.096;12.664;2022-11-15T12:43:38;26.70;;;22.58;;
13731;SDS011;6937;56.096;12.664;2022-11-15T12:46:08;23.77;;;20.52;;
13731;SDS011;6937;56.096;12.664;2022-11-15T12:51:02;24.40;;;20.00;;
13731;SDS011;6937;56.096;12.664;2022-11-15T12:53:32;21.80;;;19.45;;
13731;SDS011;6937;56.096;12.664;2022-11-15T13:04:13;19.88;;;17.88;;
13731;SDS011;6937;56.096;12.664;2022-11-15T13:12:10;19.58;;;16.73;;
13731;SDS011;6937;56.096;12.664;2022-11-15T13:20:22;18.98;;;16.60;;
13731;SDS011;6937;56.096;12.664;2022-11-15T13:33:21;17.65;;;15.75;;
13731;SDS011;6937;56.096;12.664;2022-11-15T13:36:01;16.15;;;14.10;;
13731;SDS011;6937;56.096;12.664;2022-11-15T13:38:33;16.83;;;14.23;;
13731;SDS011;6937;56.096;12.664;2022-11-15T13:41:10;16.00;;;14.30;;
13731;SDS011;6937;56.096;12.664;2022-11-15T13:43:42;15.75;;;14.15;;
13731;SDS011;6937;56.096;12.664;2022-11-15T13:49:03;15.60;;;13.43;;
13731;SDS011;6937;56.096;12.664;2022-11-15T13:54:13;13.20;;;11.90;;
13731;SDS011;6937;56.096;12.664;2022-11-15T13:56:51;14.88;;;13.38;;
13731;SDS011;6937;56.096;12.664;2022-11-15T14:02:10;15.45;;;13.90;;
13731;SDS011;6937;56.096;12.664;2022-11-15T14:04:39;16.00;;;14.18;;
13731;SDS011;6937;56.096;12.664;2022-11-15T14:07:22;16.42;;;14.73;;
13731;SDS011;6937;56.096;12.664;2022-11-15T14:09:50;16.70;;;14.93;;
13731;SDS011;6937;56.096;12.664;2022-11-15T14:12:23;17.30;;;15.45;;
13731;SDS011;6937;56.096;12.664;2022-11-15T14:14:57;16.23;;;14.52;;
13731;SDS011;6937;56.096;12.664;2022-11-15T14:19:55;16.77;;;15.18;;
13731;SDS011;6937;56.096;12.664;2022-11-15T14:22:23;16.08;;;14.50;;
13731;SDS011;6937;56.096;12.664;2022-11-15T14:30:47;17.45;;;15.80;;
13731;SDS011;6937;56.096;12.664;2022-11-15T14:35:50;16.77;;;15.05;;
13731;SDS011;6937;56.096;12.664;2022-11-15T14:38:16;16.10;;;14.60;;
13731;SDS011;6937;56.096;12.664;2022-11-15T14:40:41;15.60;;;14.00;;
13731;SDS011;6937;56.096;12.664;2022-11-15T14:43:08;15.32;;;13.82;;
13731;SDS011;6937;56.096;12.664;2022-11-15T14:45:35;14.98;;;13.57;;
13731;SDS011;6937;56.096;12.664;2022-11-15T14:48:00;14.73;;;13.30;;
13731;SDS011;6937;56.096;12.664;2022-11-15T14:50:26;13.95;;;12.55;;
13731;SDS011;6937;56.096;12.664;2022-11-15T14:52:52;13.48;;;12.18;;
13731;SDS011;6937;56.096;12.664;2022-11-15T14:55:26;13.65;;;12.25;;
13731;SDS011;6937;56.096;12.664;2022-11-15T14:57:53;13.88;;;12.48;;
13731;SDS011;6937;56.096;12.664;2022-11-15T15:00:19;13.23;;;11.82;;
13731;SDS011;6937;56.096;12.664;2022-11-15T15:02:46;13.23;;;12.02;;
13731;SDS011;6937;56.096;12.664;2022-11-15T15:05:14;12.18;;;11.07;;
13731;SDS011;6937;56.096;12.664;2022-11-15T15:07:41;12.25;;;11.05;;
13731;SDS011;6937;56.096;12.664;2022-11-15T15:10:07;11.05;;;10.05;;
13731;SDS011;6937;56.096;12.664;2022-11-15T15:12:32;11.07;;;10.07;;
13731;SDS011;6937;56.096;12.664;2022-11-15T15:14:58;11.55;;;10.50;;
13731;SDS011;6937;56.096;12.664;2022-11-15T15:17:23;12.18;;;11.07;;
13731;SDS011;6937;56.096;12.664;2022-11-15T15:19:49;11.63;;;10.43;;
13731;SDS011;6937;56.096;12.664;2022-11-15T15:22:15;11.57;;;10.48;;
13731;SDS011;6937;56.096;12.664;2022-11-15T15:24:43;12.32;;;11.13;;
13731;SDS011;6937;56.096;12.664;2022-11-15T15:27:10;12.35;;;11.15;;
13731;SDS011;6937;56.096;12.664;2022-11-15T15:29:36;11.55;;;10.35;;
13731;SDS011;6937;56.096;12.664;2022-11-15T15:32:01;11.55;;;10.45;;
13731;SDS011;6937;56.096;12.664;2022-11-15T15:34:27;10.40;;;9.40;;
13731;SDS011;6937;56.096;12.664;2022-11-15T15:39:47;10.88;;;9.82;;
13731;SDS011;6937;56.096;12.664;2022-11-15T15:42:13;11.10;;;9.98;;
13731;SDS011;6937;56.096;12.664;2022-11-15T15:44:39;10.45;;;8.63;;
13731;SDS011;6937;56.096;12.664;2022-11-15T15:47:09;8.35;;;7.55;;
13731;SDS011;6937;56.096;12.664;2022-11-15T15:49:40;7.65;;;6.72;;
13731;SDS011;6937;56.096;12.664;2022-11-15T15:52:05;6.90;;;6.22;;
13731;SDS011;6937;56.096;12.664;2022-11-15T15:54:31;5.90;;;5.40;;
13731;SDS011;6937;56.096;12.664;2022-11-15T15:56:56;7.47;;;5.55;;
13731;SDS011;6937;56.096;12.664;2022-11-15T15:59:21;7.88;;;4.93;;
13731;SDS011;6937;56.096;12.664;2022-11-15T16:01:47;8.00;;;5.18;;
13731;SDS011;6937;56.096;12.664;2022-11-15T16:04:12;6.10;;;5.40;;
13731;SDS011;6937;56.096;12.664;2022-11-15T16:06:38;6.13;;;4.95;;
13731;SDS011;6937;56.096;12.664;2022-11-15T16:09:08;5.22;;;4.70;;
13731;SDS011;6937;56.096;12.664;2022-11-15T16:11:37;6.18;;;5.38;;
13731;SDS011;6937;56.096;12.664;2022-11-15T16:14:02;8.40;;;4.80;;
13731;SDS011;6937;56.096;12.664;2022-11-15T16:16:28;6.45;;;4.90;;
13731;SDS011;6937;56.096;12.664;2022-11-15T16:18:53;5.78;;;5.28;;
13731;SDS011;6937;56.096;12.664;2022-11-15T16:21:19;5.80;;;5.20;;
13731;SDS011;6937;56.096;12.664;2022-11-15T16:23:44;5.65;;;5.05;;
13731;SDS011;6937;56.096;12.664;2022-11-15T16:26:20;5.57;;;5.07;;
13731;SDS011;6937;56.096;12.664;2022-11-15T16:28:48;5.45;;;4.95;;
13731;SDS011;6937;56.096;12.664;2022-11-15T16:31:14;5.70;;;4.88;;
13731;SDS011;6937;56.096;12.664;2022-11-15T16:33:39;5.25;;;4.75;;
13731;SDS011;6937;56.096;12.664;2022-11-15T16:36:05;6.38;;;5.07;;
13731;SDS011;6937;56.096;12.664;2022-11-15T16:38:37;6.00;;;4.40;;
13731;SDS011;6937;56.096;12.664;2022-11-15T16:41:04;6.22;;;5.35;;
13731;SDS011;6937;56.096;12.664;2022-11-15T16:43:29;6.72;;;5.38;;
13731;SDS011;6937;56.096;12.664;2022-11-15T16:45:54;6.18;;;4.78;;
13731;SDS011;6937;56.096;12.664;2022-11-15T16:48:24;6.32;;;5.72;;
13731;SDS011;6937;56.096;12.664;2022-11-15T16:50:54;6.28;;;5.68;;